createdAt,value
2022-08-24T00:01:55.565Z,95161.97
2022-08-24T00:04:25.742Z,95164.84
2022-08-24T00:06:53.989Z,95158.38
2022-08-24T00:09:22.227Z,95168.72
2022-08-24T00:11:50.205Z,95166.31
2022-08-24T00:14:19.177Z,95161.50
2022-08-24T00:16:47.559Z,95166.97
2022-08-24T00:19:16.277Z,95164.16
2022-08-24T00:21:45.695Z,95170.13
2022-08-24T00:24:14.833Z,95170.81
2022-08-24T00:26:42.818Z,95166.25
2022-08-24T00:29:11.152Z,95166.59
2022-08-24T00:31:39.149Z,95165.00
2022-08-24T00:34:07.204Z,95165.84
2022-08-24T00:36:36.300Z,95168.78
2022-08-24T00:39:06.870Z,95166.31
2022-08-24T00:41:35.862Z,95167.38
2022-08-24T00:44:06.312Z,95163.28
2022-08-24T00:46:43.668Z,95162.94
2022-08-24T00:49:19.375Z,95166.81
2022-08-24T00:51:55.648Z,95158.91
2022-08-24T00:54:28.100Z,95162.19
2022-08-24T00:57:00.211Z,95163.31
2022-08-24T00:59:32.611Z,95154.88
2022-08-24T01:02:14.982Z,95168.16
2022-08-24T01:04:49.067Z,95162.88
2022-08-24T01:07:17.431Z,95163.91
2022-08-24T01:09:47.455Z,95162.75
2022-08-24T01:12:16.746Z,95155.31
2022-08-24T01:14:45.498Z,95157.31
2022-08-24T01:17:36.219Z,95162.28
2022-08-24T01:20:09.786Z,95160.09
2022-08-24T01:22:54.835Z,95156.13
2022-08-24T01:25:27.463Z,95155.09
2022-08-24T01:28:00.299Z,95158.81
2022-08-24T01:30:36.428Z,95153.97
2022-08-24T01:33:07.270Z,95161.97
2022-08-24T01:35:36.677Z,95158.53
2022-08-24T01:38:09.278Z,95156.19
2022-08-24T01:40:42.143Z,95156.69
2022-08-24T01:43:12.578Z,95158.81
2022-08-24T01:45:41.480Z,95163.56
2022-08-24T01:48:09.554Z,95164.34
2022-08-24T01:50:38.453Z,95162.41
2022-08-24T01:53:09.016Z,95166.72
2022-08-24T01:55:38.477Z,95170.50
2022-08-24T01:58:07.321Z,95169.84
2022-08-24T02:00:37.654Z,95168.03
2022-08-24T02:03:06.579Z,95167.66
2022-08-24T02:05:35.228Z,95166.09
2022-08-24T02:08:03.471Z,95175.09
2022-08-24T02:10:32.548Z,95175.13
2022-08-24T02:13:02.862Z,95170.91
2022-08-24T02:15:34.769Z,95179.34
2022-08-24T02:18:04.939Z,95174.63
2022-08-24T02:20:33.351Z,95175.19
2022-08-24T02:23:01.598Z,95173.53
2022-08-24T02:25:30.773Z,95174.53
2022-08-24T02:27:59.628Z,95177.47
2022-08-24T02:30:30.082Z,95180.97
2022-08-24T02:32:59.211Z,95175.09
2022-08-24T02:35:27.391Z,95174.06
2022-08-24T02:37:55.462Z,95170.44
2022-08-24T02:40:24.397Z,95168.88
2022-08-24T02:42:52.914Z,95169.44
2022-08-24T02:45:21.516Z,95173.97
2022-08-24T02:47:51.008Z,95181.22
2022-08-24T02:50:20.591Z,95180.22
2022-08-24T02:52:48.812Z,95178.38
2022-08-24T02:55:19.911Z,95184.09
2022-08-24T02:57:51.947Z,95179.53
2022-08-24T03:00:22.489Z,95180.16
2022-08-24T03:02:56.132Z,95182.25
2022-08-24T03:05:26.087Z,95177.06
2022-08-24T03:07:54.562Z,95181.31
2022-08-24T03:10:23.386Z,95185.03
2022-08-24T03:12:52.083Z,95182.06
2022-08-24T03:15:22.621Z,95179.47
2022-08-24T03:17:51.416Z,95180.09
2022-08-24T03:20:23.122Z,95179.06
2022-08-24T03:22:51.938Z,95178.22
2022-08-24T03:25:24.542Z,95184.75
2022-08-24T03:27:53.541Z,95187.69
2022-08-24T03:30:23.517Z,95180.75
2022-08-24T03:32:52.644Z,95188.16
2022-08-24T03:35:22.913Z,95185.00
2022-08-24T03:37:50.933Z,95177.69
2022-08-24T03:40:23.194Z,95174.81
2022-08-24T03:42:56.388Z,95162.41
2022-08-24T03:45:24.660Z,95173.56
2022-08-24T03:47:53.331Z,95161.81
2022-08-24T03:50:24.384Z,95158.56
2022-08-24T03:52:53.479Z,95161.44
2022-08-24T03:55:21.866Z,95162.03
2022-08-24T03:57:50.207Z,95158.59
2022-08-24T04:00:18.573Z,95167.34
2022-08-24T04:02:56.571Z,95163.84
2022-08-24T04:05:27.984Z,95158.00
2022-08-24T04:08:06.028Z,95157.47
2022-08-24T04:10:36.497Z,95158.47
2022-08-24T04:13:04.700Z,95163.72
2022-08-24T04:15:33.731Z,95166.19
2022-08-24T04:18:03.813Z,95166.00
2022-08-24T04:20:33.513Z,95171.34
2022-08-24T04:23:01.482Z,95175.47
2022-08-24T04:25:29.467Z,95169.66
2022-08-24T04:27:58.351Z,95169.22
2022-08-24T04:30:26.321Z,95158.66
2022-08-24T04:33:11.292Z,95167.22
2022-08-24T04:35:42.504Z,95167.03
2022-08-24T04:38:11.352Z,95168.31
2022-08-24T04:40:46.914Z,95173.66
2022-08-24T04:43:19.903Z,95169.47
2022-08-24T04:45:50.589Z,95171.09
2022-08-24T04:48:19.461Z,95170.59
2022-08-24T04:50:49.455Z,95179.28
2022-08-24T04:53:18.121Z,95168.16
2022-08-24T04:55:51.205Z,95168.97
2022-08-24T04:58:20.316Z,95175.59
2022-08-24T05:00:49.004Z,95167.38
2022-08-24T05:03:17.150Z,95170.06
2022-08-24T05:05:50.543Z,95180.16
2022-08-24T05:08:20.947Z,95177.78
2022-08-24T05:10:50.598Z,95179.06
2022-08-24T05:13:19.835Z,95180.56
2022-08-24T05:15:49.632Z,95180.56
2022-08-24T05:18:18.592Z,95185.28
2022-08-24T05:20:48.953Z,95188.16
2022-08-24T05:23:19.880Z,95182.66
2022-08-24T05:25:48.252Z,95188.53
2022-08-24T05:28:16.258Z,95181.66
2022-08-24T05:30:44.645Z,95186.38
2022-08-24T05:33:12.753Z,95193.19
2022-08-24T05:35:43.830Z,95198.97
2022-08-24T05:38:14.155Z,95189.91
2022-08-24T05:40:43.262Z,95195.72
2022-08-24T05:43:11.723Z,95198.97
2022-08-24T05:45:42.827Z,95193.72
2022-08-24T05:48:12.014Z,95202.72
2022-08-24T05:51:03.343Z,95197.44
2022-08-24T05:53:36.994Z,95202.19
2022-08-24T05:56:07.916Z,95200.59
2022-08-24T05:58:38.386Z,95206.41
2022-08-24T06:01:08.700Z,95200.56
2022-08-24T06:03:36.999Z,95204.72
2022-08-24T06:06:08.641Z,95205.97
2022-08-24T06:08:41.687Z,95208.31
2022-08-24T06:11:11.428Z,95217.72
2022-08-24T06:13:39.650Z,95216.56
2022-08-24T06:16:24.836Z,95215.94
2022-08-24T06:18:55.339Z,95222.16
2022-08-24T06:21:28.260Z,95223.66
2022-08-24T06:24:00.334Z,95225.16
2022-08-24T06:26:50.354Z,95225.13
2022-08-24T06:29:19.626Z,95221.13
2022-08-24T06:31:54.839Z,95217.63
2022-08-24T06:34:26.352Z,95225.28
2022-08-24T06:36:55.419Z,95208.59
2022-08-24T06:39:26.995Z,95213.88
2022-08-24T06:41:57.088Z,95212.03
2022-08-24T06:44:32.747Z,95212.44
2022-08-24T06:47:08.653Z,95222.63
2022-08-24T06:49:38.012Z,95223.16
2022-08-24T06:52:06.314Z,95217.84
2022-08-24T06:54:35.634Z,95212.44
2022-08-24T06:57:05.593Z,95227.22
2022-08-24T06:59:34.792Z,95224.47
2022-08-24T07:02:02.935Z,95215.84
2022-08-24T07:04:31.223Z,95225.22
2022-08-24T07:07:22.136Z,95223.50
2022-08-24T07:09:51.523Z,95228.50
2022-08-24T07:12:19.519Z,95224.50
2022-08-24T07:14:48.311Z,95228.59
2022-08-24T07:17:16.521Z,95227.44
2022-08-24T07:19:46.201Z,95229.03
2022-08-24T07:22:22.656Z,95228.44
2022-08-24T07:24:52.074Z,95227.31
2022-08-24T07:27:21.116Z,95231.03
2022-08-24T07:30:04.635Z,95226.16
2022-08-24T07:32:38.408Z,95227.94
2022-08-24T07:35:07.940Z,95224.09
2022-08-24T07:37:41.437Z,95236.75
2022-08-24T07:40:14.313Z,95236.38
2022-08-24T07:42:42.417Z,95237.78
2022-08-24T07:45:11.295Z,95239.56
2022-08-24T07:47:46.109Z,95237.41
2022-08-24T07:50:38.423Z,95231.50
2022-08-24T07:53:09.725Z,95229.16
2022-08-24T07:55:46.213Z,95232.72
2022-08-24T07:58:15.107Z,95235.28
2022-08-24T08:00:47.644Z,95241.38
2022-08-24T08:03:15.974Z,95231.72
2022-08-24T08:05:45.571Z,95236.47
2022-08-24T08:08:13.668Z,95237.81
2022-08-24T08:10:43.720Z,95236.47
2022-08-24T08:13:11.941Z,95238.41
2022-08-24T08:15:39.982Z,95237.69
2022-08-24T08:18:11.262Z,95239.06
2022-08-24T08:20:42.475Z,95237.41
2022-08-24T08:23:29.754Z,95235.53
2022-08-24T08:26:17.491Z,95242.81
2022-08-24T08:29:04.598Z,95239.22
2022-08-24T08:31:34.676Z,95243.97
2022-08-24T08:34:04.979Z,95235.06
2022-08-24T08:36:33.806Z,95227.38
2022-08-24T08:39:02.323Z,95232.50
2022-08-24T08:42:05.679Z,95237.25
2022-08-24T08:45:03.803Z,95237.97
2022-08-24T08:48:11.756Z,95241.88
2022-08-24T08:51:14.055Z,95236.81
2022-08-24T08:54:11.805Z,95234.06
2022-08-24T08:56:53.217Z,95233.25
2022-08-24T08:59:39.168Z,95235.22
2022-08-24T09:02:23.966Z,95237.00
2022-08-24T09:05:28.635Z,95229.09
2022-08-24T09:08:07.002Z,95224.66
2022-08-24T09:10:54.417Z,95226.97
2022-08-24T09:13:54.465Z,95227.34
2022-08-24T09:17:02.926Z,95224.94
2022-08-24T09:19:44.653Z,95224.16
2022-08-24T09:22:15.213Z,95225.81
2022-08-24T09:25:26.476Z,95232.22
2022-08-24T09:28:22.291Z,95218.56
2022-08-24T09:31:14.437Z,95224.06
2022-08-24T09:33:46.907Z,95225.47
2022-08-24T09:36:21.490Z,95223.69
2022-08-24T09:39:05.965Z,95222.50
2022-08-24T09:42:20.368Z,95219.69
2022-08-24T09:45:21.463Z,95214.44
2022-08-24T09:48:15.799Z,95207.22
2022-08-24T09:51:15.704Z,95203.28
2022-08-24T09:54:21.861Z,95207.38
2022-08-24T09:57:12.226Z,95207.75
2022-08-24T10:00:10.339Z,95205.09
2022-08-24T10:03:08.406Z,95202.28
2022-08-24T10:05:54.608Z,95200.94
2022-08-24T10:08:35.918Z,95200.63
2022-08-24T10:11:11.810Z,95192.91
2022-08-24T10:13:50.835Z,95196.06
2022-08-24T10:16:38.881Z,95201.09
2022-08-24T10:19:31.887Z,95192.91
2022-08-24T10:22:09.484Z,95194.53
2022-08-24T10:25:01.889Z,95191.69
2022-08-24T10:27:45.867Z,95192.16
2022-08-24T10:30:46.872Z,95187.94
2022-08-24T10:33:21.337Z,95180.38
2022-08-24T10:36:26.402Z,95182.59
2022-08-24T10:39:29.851Z,95188.88
2022-08-24T10:42:43.328Z,95180.72
2022-08-24T10:45:28.821Z,95188.41
2022-08-24T10:48:26.634Z,95179.13
2022-08-24T10:51:00.310Z,95174.56
2022-08-24T10:53:30.802Z,95175.69
2022-08-24T10:56:08.425Z,95175.69
2022-08-24T10:58:52.139Z,95172.38
2022-08-24T11:01:26.672Z,95172.19
2022-08-24T11:04:02.623Z,95165.28
2022-08-24T11:06:33.038Z,95170.03
2022-08-24T11:09:06.156Z,95170.81
2022-08-24T11:11:40.597Z,95162.47
2022-08-24T11:14:23.857Z,95171.28
2022-08-24T11:16:57.024Z,95170.34
2022-08-24T11:19:33.997Z,95165.94
2022-08-24T11:22:04.976Z,95168.78
2022-08-24T11:24:43.453Z,95164.69
2022-08-24T11:27:30.538Z,95171.59
2022-08-24T11:30:02.618Z,95169.41
2022-08-24T11:32:37.798Z,95165.78
2022-08-24T11:35:09.508Z,95162.44
2022-08-24T11:37:39.677Z,95167.16
2022-08-24T11:40:09.683Z,95165.28
2022-08-24T11:42:53.303Z,95161.50
2022-08-24T11:45:29.886Z,95166.38
2022-08-24T11:48:05.873Z,95165.59
2022-08-24T11:50:37.679Z,95171.09
2022-08-24T11:53:13.071Z,95165.28
2022-08-24T11:55:51.767Z,95160.22
2022-08-24T11:58:38.691Z,95159.56
2022-08-24T12:01:15.079Z,95167.09
2022-08-24T12:03:56.690Z,95169.94
2022-08-24T12:06:36.953Z,95166.41
2022-08-24T12:09:19.099Z,95169.94
2022-08-24T12:11:57.843Z,95170.84
2022-08-24T12:14:38.120Z,95161.56
2022-08-24T12:17:11.329Z,95171.31
2022-08-24T12:19:48.349Z,95163.56
2022-08-24T12:22:19.172Z,95161.19
2022-08-24T12:24:49.563Z,95161.34
2022-08-24T12:27:22.073Z,95153.28
2022-08-24T12:30:00.611Z,95151.47
2022-08-24T12:32:40.904Z,95158.03
2022-08-24T12:35:16.893Z,95154.91
2022-08-24T12:37:49.246Z,95153.69
2022-08-24T12:40:25.337Z,95158.69
2022-08-24T12:42:56.540Z,95151.38
2022-08-24T12:45:26.865Z,95157.03
2022-08-24T12:48:01.211Z,95159.53
2022-08-24T12:50:38.969Z,95146.84
2022-08-24T12:53:43.071Z,95148.06
2022-08-24T12:56:28.084Z,95141.63
2022-08-24T12:59:04.332Z,95146.97
2022-08-24T13:01:36.888Z,95148.31
2022-08-24T13:04:10.252Z,95138.75
2022-08-24T13:06:42.459Z,95128.28
2022-08-24T13:09:16.365Z,95137.19
2022-08-24T13:11:44.515Z,95136.38
2022-08-24T13:14:21.684Z,95146.06
2022-08-24T13:17:08.553Z,95134.31
2022-08-24T13:19:40.047Z,95139.91
2022-08-24T13:22:47.144Z,95126.72
2022-08-24T13:25:53.871Z,95130.13
2022-08-24T13:28:45.307Z,95133.09
2022-08-24T13:31:42.603Z,95129.78
2022-08-24T13:34:46.672Z,95120.84
2022-08-24T13:37:18.909Z,95115.97
2022-08-24T13:40:06.589Z,95126.31
2022-08-24T13:43:04.129Z,95123.31
2022-08-24T13:45:36.449Z,95124.47
2022-08-24T13:48:28.676Z,95120.28
2022-08-24T13:51:21.791Z,95109.44
2022-08-24T13:54:05.433Z,95114.00
2022-08-24T13:57:02.111Z,95110.00
2022-08-24T13:59:50.237Z,95105.50
2022-08-24T14:02:30.175Z,95112.25
2022-08-24T14:05:10.489Z,95112.00
2022-08-24T14:07:55.314Z,95110.44
2022-08-24T14:10:39.664Z,95108.19
2022-08-24T14:13:26.674Z,95109.53
2022-08-24T14:16:14.528Z,95104.03
2022-08-24T14:18:59.024Z,95102.91
2022-08-24T14:21:39.885Z,95106.91
2022-08-24T14:24:14.495Z,95102.31
2022-08-24T14:27:09.672Z,95100.50
2022-08-24T14:30:15.684Z,95092.63
2022-08-24T14:33:04.314Z,95096.94
2022-08-24T14:35:37.273Z,95097.03
2022-08-24T14:38:31.566Z,95089.50
2022-08-24T14:41:26.547Z,95090.41
2022-08-24T14:44:08.877Z,95070.50
2022-08-24T14:46:45.633Z,95064.50
2022-08-24T14:49:21.456Z,95088.88
2022-08-24T14:52:11.063Z,95089.31
2022-08-24T14:54:54.108Z,95089.72
2022-08-24T14:57:40.697Z,95098.50
2022-08-24T15:00:13.824Z,95087.75
2022-08-24T15:03:02.735Z,95086.59
2022-08-24T15:05:40.842Z,95094.19
2022-08-24T15:08:11.631Z,95096.06
2022-08-24T15:10:47.466Z,95090.13
2022-08-24T15:13:28.729Z,95095.91
2022-08-24T15:16:02.056Z,95097.63
2022-08-24T15:18:37.977Z,95095.75
2022-08-24T15:21:27.637Z,95091.16
2022-08-24T15:24:10.234Z,95093.16
2022-08-24T15:26:53.244Z,95087.84
2022-08-24T15:29:24.684Z,95088.63
2022-08-24T15:32:04.470Z,95089.69
2022-08-24T15:34:45.552Z,95094.78
2022-08-24T15:37:15.911Z,95092.00
2022-08-24T15:39:44.046Z,95089.75
2022-08-24T15:42:15.302Z,95092.88
2022-08-24T15:44:48.112Z,95089.47
2022-08-24T15:47:30.248Z,95092.91
2022-08-24T15:50:00.802Z,95086.25
2022-08-24T15:52:49.455Z,95084.16
2022-08-24T15:55:40.622Z,95091.66
2022-08-24T15:58:35.075Z,95089.22
2022-08-24T16:01:39.751Z,95087.59
2022-08-24T16:04:10.991Z,95075.31
2022-08-24T16:06:45.129Z,95089.75
2022-08-24T16:09:35.698Z,95088.78
2022-08-24T16:12:07.823Z,95084.84
2022-08-24T16:14:38.855Z,95080.34
2022-08-24T16:17:27.720Z,95083.56
2022-08-24T16:19:58.520Z,95081.19
2022-08-24T16:22:33.478Z,95086.19
2022-08-24T16:25:23.858Z,95078.53
2022-08-24T16:28:07.841Z,95082.34
2022-08-24T16:30:44.506Z,95076.78
2022-08-24T16:33:43.329Z,95083.91
2022-08-24T16:36:15.213Z,95075.41
2022-08-24T16:38:47.960Z,95070.31
2022-08-24T16:41:18.683Z,95071.44
2022-08-24T16:43:48.202Z,95081.19
2022-08-24T16:46:20.736Z,95071.97
2022-08-24T16:48:50.189Z,95083.75
2022-08-24T16:51:18.231Z,95081.03
2022-08-24T16:53:46.197Z,95074.75
2022-08-24T16:56:16.653Z,95081.19
2022-08-24T16:58:47.165Z,95075.19
2022-08-24T17:01:15.692Z,95074.81
2022-08-24T17:03:43.831Z,95081.34
2022-08-24T17:06:14.763Z,95079.06
2022-08-24T17:08:42.903Z,95083.59
2022-08-24T17:11:10.842Z,95086.50
2022-08-24T17:13:49.342Z,95084.00
2022-08-24T17:16:18.879Z,95083.84
2022-08-24T17:18:47.310Z,95092.50
2022-08-24T17:21:16.746Z,95085.44
2022-08-24T17:23:48.381Z,95077.88
2022-08-24T17:26:21.025Z,95082.72
2022-08-24T17:28:52.004Z,95094.69
2022-08-24T17:31:20.250Z,95085.13
2022-08-24T17:33:48.466Z,95090.00
2022-08-24T17:36:21.208Z,95089.91
2022-08-24T17:38:55.705Z,95088.38
2022-08-24T17:41:25.652Z,95091.59
2022-08-24T17:43:54.487Z,95097.47
2022-08-24T17:46:23.062Z,95091.69
2022-08-24T17:48:51.641Z,95096.19
2022-08-24T17:51:21.225Z,95088.16
2022-08-24T17:53:49.283Z,95096.94
2022-08-24T17:56:18.169Z,95095.19
2022-08-24T17:59:04.158Z,95092.06
2022-08-24T18:01:32.639Z,95100.34
2022-08-24T18:04:00.708Z,95097.66
2022-08-24T18:06:30.252Z,95097.66
2022-08-24T18:09:03.933Z,95096.78
2022-08-24T18:11:32.107Z,95107.28
2022-08-24T18:14:01.575Z,95099.31
2022-08-24T18:16:29.730Z,95097.16
2022-08-24T18:18:57.971Z,95099.81
2022-08-24T18:21:25.944Z,95097.09
2022-08-24T18:23:55.330Z,95110.94
2022-08-24T18:26:28.049Z,95094.00
2022-08-24T18:28:58.255Z,95102.78
2022-08-24T18:31:28.929Z,95105.84
2022-08-24T18:33:57.009Z,95103.13
2022-08-24T18:36:24.936Z,95103.84
2022-08-24T18:38:53.275Z,95106.25
2022-08-24T18:41:27.256Z,95108.25
2022-08-24T18:43:55.497Z,95106.38
2022-08-24T18:46:23.890Z,95110.69
2022-08-24T18:48:51.860Z,95107.09
2022-08-24T18:51:21.360Z,95108.94
2022-08-24T18:53:49.579Z,95107.25
2022-08-24T18:56:17.990Z,95108.19
2022-08-24T18:58:47.346Z,95122.06
2022-08-24T19:01:15.450Z,95117.34
2022-08-24T19:03:43.816Z,95122.41
2022-08-24T19:06:11.873Z,95116.31
2022-08-24T19:08:40.078Z,95113.81
2022-08-24T19:11:08.882Z,95120.28
2022-08-24T19:13:38.795Z,95112.59
2022-08-24T19:16:08.732Z,95125.50
2022-08-24T19:18:36.739Z,95116.22
2022-08-24T19:21:04.745Z,95115.59
2022-08-24T19:23:36.479Z,95124.38
2022-08-24T19:26:05.282Z,95124.56
2022-08-24T19:28:33.284Z,95123.94
2022-08-24T19:31:04.254Z,95121.59
2022-08-24T19:33:37.928Z,95120.50
2022-08-24T19:36:06.642Z,95123.31
2022-08-24T19:38:34.889Z,95130.38
2022-08-24T19:41:11.183Z,95136.06
2022-08-24T19:44:00.875Z,95124.41
2022-08-24T19:46:28.134Z,95135.72
2022-08-24T19:48:57.533Z,95130.38
2022-08-24T19:51:26.700Z,95128.19
2022-08-24T19:53:54.910Z,95129.44
2022-08-24T19:56:24.009Z,95129.91
2022-08-24T19:58:59.679Z,95131.00
2022-08-24T20:01:29.910Z,95131.00
2022-08-24T20:03:59.350Z,95139.50
2022-08-24T20:06:28.325Z,95142.34
2022-08-24T20:08:56.695Z,95147.69
2022-08-24T20:11:25.503Z,95140.13
2022-08-24T20:13:54.485Z,95136.34
2022-08-24T20:16:24.565Z,95144.44
2022-08-24T20:18:52.714Z,95141.94
2022-08-24T20:21:27.094Z,95132.81
2022-08-24T20:23:57.545Z,95149.63
2022-08-24T20:26:25.986Z,95149.94
2022-08-24T20:28:55.433Z,95153.91
2022-08-24T20:31:28.081Z,95154.22
2022-08-24T20:33:57.795Z,95155.41
2022-08-24T20:36:30.376Z,95156.22
2022-08-24T20:39:01.426Z,95155.78
2022-08-24T20:41:29.895Z,95155.19
2022-08-24T20:43:58.251Z,95157.44
2022-08-24T20:46:27.915Z,95146.78
2022-08-24T20:48:57.251Z,95155.78
2022-08-24T20:51:26.996Z,95162.09
2022-08-24T20:53:55.925Z,95152.19
2022-08-24T20:56:30.815Z,95152.66
2022-08-24T20:59:00.083Z,95150.69
2022-08-24T21:01:28.055Z,95152.09
2022-08-24T21:03:58.513Z,95158.22
2022-08-24T21:06:30.646Z,95152.84
2022-08-24T21:08:58.708Z,95150.97
2022-08-24T21:11:26.666Z,95165.19
2022-08-24T21:13:54.680Z,95161.25
2022-08-24T21:16:22.760Z,95159.69
2022-08-24T21:18:50.790Z,95168.44
2022-08-24T21:21:19.041Z,95165.91
2022-08-24T21:23:48.472Z,95165.91
2022-08-24T21:26:20.029Z,95177.13
2022-08-24T21:28:49.606Z,95174.47
2022-08-24T21:31:18.151Z,95171.63
2022-08-24T21:34:03.822Z,95175.22
2022-08-24T21:36:32.224Z,95173.16
2022-08-24T21:39:02.355Z,95168.91
2022-08-24T21:41:30.386Z,95177.41
2022-08-24T21:43:58.849Z,95174.84
2022-08-24T21:46:31.445Z,95177.63
2022-08-24T21:49:00.417Z,95184.00
2022-08-24T21:51:28.739Z,95178.19
2022-08-24T21:53:59.506Z,95181.47
2022-08-24T21:56:33.224Z,95180.38
2022-08-24T21:59:02.803Z,95180.97
2022-08-24T22:01:30.840Z,95186.13
2022-08-24T22:03:59.333Z,95178.44
2022-08-24T22:06:31.204Z,95180.63
2022-08-24T22:08:59.423Z,95184.97
2022-08-24T22:11:29.703Z,95186.53
2022-08-24T22:13:58.303Z,95190.31
2022-08-24T22:16:27.093Z,95183.66
2022-08-24T22:18:55.491Z,95186.75
2022-08-24T22:21:26.440Z,95186.94
2022-08-24T22:23:56.677Z,95193.66
2022-08-24T22:26:25.936Z,95190.50
2022-08-24T22:28:56.759Z,95187.34
2022-08-24T22:31:27.779Z,95178.75
2022-08-24T22:33:57.674Z,95180.03
2022-08-24T22:36:26.466Z,95177.84
2022-08-24T22:38:56.206Z,95186.16
2022-08-24T22:41:25.109Z,95183.59
2022-08-24T22:44:14.126Z,95185.97
2022-08-24T22:46:42.221Z,95190.94
2022-08-24T22:49:11.418Z,95190.75
2022-08-24T22:51:40.612Z,95189.16
2022-08-24T22:54:09.540Z,95189.97
2022-08-24T22:56:40.866Z,95189.47
2022-08-24T22:59:14.452Z,95191.16
2022-08-24T23:01:44.400Z,95186.22
2022-08-24T23:04:15.250Z,95191.41
2022-08-24T23:06:43.835Z,95184.03
2022-08-24T23:09:12.285Z,95191.53
2022-08-24T23:11:40.627Z,95186.69
2022-08-24T23:14:12.419Z,95179.31
2022-08-24T23:16:44.666Z,95188.94
2022-08-24T23:19:30.207Z,95185.78
2022-08-24T23:21:58.259Z,95194.25
2022-08-24T23:24:26.212Z,95201.16
2022-08-24T23:26:54.245Z,95206.69
2022-08-24T23:29:23.607Z,95210.25
2022-08-24T23:31:53.626Z,95201.47
2022-08-24T23:34:23.385Z,95213.50
2022-08-24T23:36:52.239Z,95211.91
2022-08-24T23:39:21.504Z,95209.25
2022-08-24T23:41:50.934Z,95204.50
2022-08-24T23:44:21.813Z,95199.78
2022-08-24T23:46:51.653Z,95203.81
2022-08-24T23:49:21.615Z,95197.00
2022-08-24T23:51:50.409Z,95199.19
2022-08-24T23:54:21.499Z,95200.56
2022-08-24T23:56:50.381Z,95188.91
2022-08-24T23:59:21.677Z,95192.88
